sensor_id;sensor_type;location;lat;lon;timestamp;P1;durP1;ratioP1;P2;durP2;ratioP2
76228;SDS011;65021;53.174;18.160;2023-04-29T00:02:22;19.90;;;8.70;;
76228;SDS011;65021;53.174;18.160;2023-04-29T00:04:48;19.00;;;8.50;;
76228;SDS011;65021;53.174;18.160;2023-04-29T00:07:15;18.70;;;8.00;;
76228;SDS011;65021;53.174;18.160;2023-04-29T00:09:42;13.60;;;7.10;;
76228;SDS011;65021;53.174;18.160;2023-04-29T00:12:09;13.90;;;7.80;;
76228;SDS011;65021;53.174;18.160;2023-04-29T00:14:36;14.80;;;7.70;;
76228;SDS011;65021;53.174;18.160;2023-04-29T00:17:02;13.60;;;6.50;;
76228;SDS011;65021;53.174;18.160;2023-04-29T00:19:29;16.00;;;8.30;;
76228;SDS011;65021;53.174;18.160;2023-04-29T00:21:55;14.50;;;6.90;;
76228;SDS011;65021;53.174;18.160;2023-04-29T00:24:22;16.20;;;8.30;;
76228;SDS011;65021;53.174;18.160;2023-04-29T00:26:49;14.70;;;7.50;;
76228;SDS011;65021;53.174;18.160;2023-04-29T00:29:15;11.80;;;6.50;;
76228;SDS011;65021;53.174;18.160;2023-04-29T00:31:42;15.10;;;5.90;;
76228;SDS011;65021;53.174;18.160;2023-04-29T00:34:08;12.10;;;6.30;;
76228;SDS011;65021;53.174;18.160;2023-04-29T00:36:35;16.10;;;7.10;;
76228;SDS011;65021;53.174;18.160;2023-04-29T00:39:02;11.80;;;6.70;;
76228;SDS011;65021;53.174;18.160;2023-04-29T00:41:28;14.00;;;5.90;;
76228;SDS011;65021;53.174;18.160;2023-04-29T00:43:56;11.70;;;6.60;;
76228;SDS011;65021;53.174;18.160;2023-04-29T00:46:23;10.20;;;5.30;;
76228;SDS011;65021;53.174;18.160;2023-04-29T00:48:49;10.20;;;4.70;;
76228;SDS011;65021;53.174;18.160;2023-04-29T00:51:16;13.80;;;6.30;;
76228;SDS011;65021;53.174;18.160;2023-04-29T00:53:43;15.00;;;6.90;;
76228;SDS011;65021;53.174;18.160;2023-04-29T00:56:10;18.00;;;7.00;;
76228;SDS011;65021;53.174;18.160;2023-04-29T00:58:39;14.40;;;7.70;;
76228;SDS011;65021;53.174;18.160;2023-04-29T01:01:10;14.20;;;8.40;;
76228;SDS011;65021;53.174;18.160;2023-04-29T01:03:37;9.10;;;4.70;;
76228;SDS011;65021;53.174;18.160;2023-04-29T01:06:19;9.70;;;5.20;;
76228;SDS011;65021;53.174;18.160;2023-04-29T01:11:34;12.50;;;6.10;;
76228;SDS011;65021;53.174;18.160;2023-04-29T01:14:10;13.50;;;5.90;;
76228;SDS011;65021;53.174;18.160;2023-04-29T01:16:44;16.10;;;8.40;;
76228;SDS011;65021;53.174;18.160;2023-04-29T01:22:07;10.30;;;5.40;;
76228;SDS011;65021;53.174;18.160;2023-04-29T01:24:34;14.70;;;5.60;;
76228;SDS011;65021;53.174;18.160;2023-04-29T01:27:35;11.20;;;5.30;;
76228;SDS011;65021;53.174;18.160;2023-04-29T01:32:51;18.30;;;8.70;;
76228;SDS011;65021;53.174;18.160;2023-04-29T01:35:21;15.20;;;9.00;;
76228;SDS011;65021;53.174;18.160;2023-04-29T01:37:55;13.90;;;6.70;;
76228;SDS011;65021;53.174;18.160;2023-04-29T01:40:32;17.80;;;6.20;;
76228;SDS011;65021;53.174;18.160;2023-04-29T01:43:04;17.30;;;7.70;;
76228;SDS011;65021;53.174;18.160;2023-04-29T01:45:37;17.60;;;8.80;;
76228;SDS011;65021;53.174;18.160;2023-04-29T01:48:07;15.60;;;8.00;;
76228;SDS011;65021;53.174;18.160;2023-04-29T01:50:34;14.60;;;7.60;;
76228;SDS011;65021;53.174;18.160;2023-04-29T01:53:01;15.60;;;8.10;;
76228;SDS011;65021;53.174;18.160;2023-04-29T01:55:28;18.40;;;9.00;;
76228;SDS011;65021;53.174;18.160;2023-04-29T01:57:54;14.20;;;8.90;;
76228;SDS011;65021;53.174;18.160;2023-04-29T02:00:21;16.20;;;8.50;;
76228;SDS011;65021;53.174;18.160;2023-04-29T02:02:48;18.00;;;9.50;;
76228;SDS011;65021;53.174;18.160;2023-04-29T02:05:14;15.60;;;9.30;;
76228;SDS011;65021;53.174;18.160;2023-04-29T02:07:41;17.00;;;9.70;;
76228;SDS011;65021;53.174;18.160;2023-04-29T02:10:09;16.00;;;9.40;;
76228;SDS011;65021;53.174;18.160;2023-04-29T02:12:37;15.10;;;6.90;;
76228;SDS011;65021;53.174;18.160;2023-04-29T02:15:04;17.30;;;9.70;;
76228;SDS011;65021;53.174;18.160;2023-04-29T02:17:32;16.10;;;9.10;;
76228;SDS011;65021;53.174;18.160;2023-04-29T02:19:59;19.80;;;8.90;;
76228;SDS011;65021;53.174;18.160;2023-04-29T02:22:26;20.80;;;10.20;;
76228;SDS011;65021;53.174;18.160;2023-04-29T02:24:52;17.20;;;9.60;;
76228;SDS011;65021;53.174;18.160;2023-04-29T02:27:19;18.90;;;9.50;;
76228;SDS011;65021;53.174;18.160;2023-04-29T02:29:45;18.70;;;10.30;;
76228;SDS011;65021;53.174;18.160;2023-04-29T02:32:12;20.20;;;10.30;;
76228;SDS011;65021;53.174;18.160;2023-04-29T02:34:40;17.50;;;9.20;;
76228;SDS011;65021;53.174;18.160;2023-04-29T02:37:07;19.80;;;10.60;;
76228;SDS011;65021;53.174;18.160;2023-04-29T02:39:33;16.00;;;9.70;;
76228;SDS011;65021;53.174;18.160;2023-04-29T02:42:00;16.90;;;9.40;;
76228;SDS011;65021;53.174;18.160;2023-04-29T02:44:27;20.70;;;10.00;;
76228;SDS011;65021;53.174;18.160;2023-04-29T02:46:54;22.30;;;10.60;;
76228;SDS011;65021;53.174;18.160;2023-04-29T02:49:20;18.10;;;9.60;;
76228;SDS011;65021;53.174;18.160;2023-04-29T02:51:47;17.50;;;9.60;;
76228;SDS011;65021;53.174;18.160;2023-04-29T02:54:15;17.10;;;10.10;;
76228;SDS011;65021;53.174;18.160;2023-04-29T02:56:42;20.10;;;9.30;;
76228;SDS011;65021;53.174;18.160;2023-04-29T02:59:09;17.70;;;9.30;;
76228;SDS011;65021;53.174;18.160;2023-04-29T03:01:36;13.70;;;7.30;;
76228;SDS011;65021;53.174;18.160;2023-04-29T03:04:04;16.10;;;8.40;;
76228;SDS011;65021;53.174;18.160;2023-04-29T03:06:31;20.50;;;10.70;;
76228;SDS011;65021;53.174;18.160;2023-04-29T03:08:59;21.70;;;10.20;;
76228;SDS011;65021;53.174;18.160;2023-04-29T03:11:26;17.80;;;9.00;;
76228;SDS011;65021;53.174;18.160;2023-04-29T03:13:52;20.00;;;9.80;;
76228;SDS011;65021;53.174;18.160;2023-04-29T03:16:19;19.80;;;10.00;;
76228;SDS011;65021;53.174;18.160;2023-04-29T03:18:47;16.50;;;9.80;;
76228;SDS011;65021;53.174;18.160;2023-04-29T03:21:14;13.80;;;7.80;;
76228;SDS011;65021;53.174;18.160;2023-04-29T03:23:41;20.00;;;9.90;;
76228;SDS011;65021;53.174;18.160;2023-04-29T03:26:08;16.60;;;9.60;;
76228;SDS011;65021;53.174;18.160;2023-04-29T03:28:34;18.80;;;9.80;;
76228;SDS011;65021;53.174;18.160;2023-04-29T03:31:01;18.20;;;9.50;;
76228;SDS011;65021;53.174;18.160;2023-04-29T03:33:28;19.80;;;10.30;;
76228;SDS011;65021;53.174;18.160;2023-04-29T03:35:54;18.20;;;10.30;;
76228;SDS011;65021;53.174;18.160;2023-04-29T03:38:21;17.60;;;8.30;;
76228;SDS011;65021;53.174;18.160;2023-04-29T03:40:48;19.40;;;9.20;;
76228;SDS011;65021;53.174;18.160;2023-04-29T03:43:15;13.40;;;7.40;;
76228;SDS011;65021;53.174;18.160;2023-04-29T03:45:41;20.20;;;9.50;;
76228;SDS011;65021;53.174;18.160;2023-04-29T03:48:15;14.90;;;7.60;;
76228;SDS011;65021;53.174;18.160;2023-04-29T03:50:42;14.80;;;7.90;;
76228;SDS011;65021;53.174;18.160;2023-04-29T03:53:09;15.10;;;7.70;;
76228;SDS011;65021;53.174;18.160;2023-04-29T03:55:37;11.90;;;7.10;;
76228;SDS011;65021;53.174;18.160;2023-04-29T03:58:04;13.40;;;7.20;;
76228;SDS011;65021;53.174;18.160;2023-04-29T04:00:30;16.50;;;6.30;;
76228;SDS011;65021;53.174;18.160;2023-04-29T04:02:57;19.90;;;10.60;;
76228;SDS011;65021;53.174;18.160;2023-04-29T04:05:25;18.70;;;9.60;;
76228;SDS011;65021;53.174;18.160;2023-04-29T04:07:52;20.30;;;10.10;;
76228;SDS011;65021;53.174;18.160;2023-04-29T04:10:22;16.50;;;9.70;;
76228;SDS011;65021;53.174;18.160;2023-04-29T04:12:49;14.80;;;7.10;;
76228;SDS011;65021;53.174;18.160;2023-04-29T04:15:16;13.50;;;7.00;;
76228;SDS011;65021;53.174;18.160;2023-04-29T04:17:43;9.80;;;5.30;;
76228;SDS011;65021;53.174;18.160;2023-04-29T04:20:09;18.50;;;9.20;;
76228;SDS011;65021;53.174;18.160;2023-04-29T04:22:36;16.70;;;9.80;;
76228;SDS011;65021;53.174;18.160;2023-04-29T04:25:03;15.10;;;8.40;;
76228;SDS011;65021;53.174;18.160;2023-04-29T04:27:30;13.20;;;7.00;;
76228;SDS011;65021;53.174;18.160;2023-04-29T04:29:56;13.50;;;5.80;;
76228;SDS011;65021;53.174;18.160;2023-04-29T04:32:23;12.90;;;6.20;;
76228;SDS011;65021;53.174;18.160;2023-04-29T04:34:50;14.50;;;7.20;;
76228;SDS011;65021;53.174;18.160;2023-04-29T04:37:19;15.70;;;7.30;;
76228;SDS011;65021;53.174;18.160;2023-04-29T04:39:46;15.40;;;7.10;;
76228;SDS011;65021;53.174;18.160;2023-04-29T04:42:13;11.40;;;6.30;;
76228;SDS011;65021;53.174;18.160;2023-04-29T04:44:39;11.90;;;6.20;;
76228;SDS011;65021;53.174;18.160;2023-04-29T04:47:06;12.10;;;6.50;;
76228;SDS011;65021;53.174;18.160;2023-04-29T04:49:33;13.10;;;6.00;;
76228;SDS011;65021;53.174;18.160;2023-04-29T04:51:59;12.60;;;6.10;;
76228;SDS011;65021;53.174;18.160;2023-04-29T04:54:26;12.40;;;4.90;;
76228;SDS011;65021;53.174;18.160;2023-04-29T04:56:53;15.50;;;7.40;;
76228;SDS011;65021;53.174;18.160;2023-04-29T04:59:19;15.10;;;7.00;;
76228;SDS011;65021;53.174;18.160;2023-04-29T05:01:46;16.40;;;6.50;;
76228;SDS011;65021;53.174;18.160;2023-04-29T05:04:13;13.80;;;6.90;;
76228;SDS011;65021;53.174;18.160;2023-04-29T05:06:40;13.30;;;6.20;;
76228;SDS011;65021;53.174;18.160;2023-04-29T05:09:07;12.80;;;8.00;;
76228;SDS011;65021;53.174;18.160;2023-04-29T05:11:33;13.70;;;5.90;;
76228;SDS011;65021;53.174;18.160;2023-04-29T05:14:00;15.30;;;7.00;;
76228;SDS011;65021;53.174;18.160;2023-04-29T05:16:27;10.80;;;6.20;;
76228;SDS011;65021;53.174;18.160;2023-04-29T05:18:53;13.80;;;7.30;;
76228;SDS011;65021;53.174;18.160;2023-04-29T05:21:20;9.50;;;4.90;;
76228;SDS011;65021;53.174;18.160;2023-04-29T05:23:46;11.10;;;6.20;;
76228;SDS011;65021;53.174;18.160;2023-04-29T05:26:13;14.50;;;7.60;;
76228;SDS011;65021;53.174;18.160;2023-04-29T05:28:40;13.10;;;7.20;;
76228;SDS011;65021;53.174;18.160;2023-04-29T05:31:06;12.70;;;7.40;;
76228;SDS011;65021;53.174;18.160;2023-04-29T05:33:33;11.90;;;6.60;;
76228;SDS011;65021;53.174;18.160;2023-04-29T05:35:59;13.10;;;6.90;;
76228;SDS011;65021;53.174;18.160;2023-04-29T05:38:26;12.20;;;7.00;;
76228;SDS011;65021;53.174;18.160;2023-04-29T05:40:54;9.50;;;5.00;;
76228;SDS011;65021;53.174;18.160;2023-04-29T05:43:21;13.40;;;6.70;;
76228;SDS011;65021;53.174;18.160;2023-04-29T05:45:48;13.90;;;7.60;;
76228;SDS011;65021;53.174;18.160;2023-04-29T05:48:14;14.40;;;6.50;;
76228;SDS011;65021;53.174;18.160;2023-04-29T05:50:41;9.00;;;4.30;;
76228;SDS011;65021;53.174;18.160;2023-04-29T05:53:08;14.20;;;6.70;;
76228;SDS011;65021;53.174;18.160;2023-04-29T05:55:35;14.70;;;7.70;;
76228;SDS011;65021;53.174;18.160;2023-04-29T05:58:01;13.80;;;7.40;;
76228;SDS011;65021;53.174;18.160;2023-04-29T06:00:28;14.20;;;6.50;;
76228;SDS011;65021;53.174;18.160;2023-04-29T06:02:54;13.40;;;7.80;;
76228;SDS011;65021;53.174;18.160;2023-04-29T06:05:22;12.30;;;6.50;;
76228;SDS011;65021;53.174;18.160;2023-04-29T06:07:49;13.30;;;6.70;;
76228;SDS011;65021;53.174;18.160;2023-04-29T06:10:16;14.10;;;7.10;;
76228;SDS011;65021;53.174;18.160;2023-04-29T06:12:43;16.20;;;7.20;;
76228;SDS011;65021;53.174;18.160;2023-04-29T06:15:09;11.70;;;6.70;;
76228;SDS011;65021;53.174;18.160;2023-04-29T06:17:36;13.60;;;7.40;;
76228;SDS011;65021;53.174;18.160;2023-04-29T06:20:03;12.30;;;6.70;;
76228;SDS011;65021;53.174;18.160;2023-04-29T06:22:30;11.30;;;5.70;;
76228;SDS011;65021;53.174;18.160;2023-04-29T06:24:56;19.60;;;7.20;;
76228;SDS011;65021;53.174;18.160;2023-04-29T06:27:23;15.80;;;7.50;;
76228;SDS011;65021;53.174;18.160;2023-04-29T06:29:49;12.40;;;7.20;;
76228;SDS011;65021;53.174;18.160;2023-04-29T06:32:16;13.80;;;7.00;;
76228;SDS011;65021;53.174;18.160;2023-04-29T06:34:42;15.00;;;7.90;;
76228;SDS011;65021;53.174;18.160;2023-04-29T06:37:10;14.50;;;7.90;;
76228;SDS011;65021;53.174;18.160;2023-04-29T06:39:37;13.40;;;6.60;;
76228;SDS011;65021;53.174;18.160;2023-04-29T06:42:04;14.80;;;8.50;;
76228;SDS011;65021;53.174;18.160;2023-04-29T06:44:30;14.60;;;7.20;;
76228;SDS011;65021;53.174;18.160;2023-04-29T06:46:57;11.00;;;5.80;;
76228;SDS011;65021;53.174;18.160;2023-04-29T06:49:24;9.70;;;5.40;;
76228;SDS011;65021;53.174;18.160;2023-04-29T06:51:50;10.90;;;5.80;;
76228;SDS011;65021;53.174;18.160;2023-04-29T06:54:17;11.10;;;5.60;;
76228;SDS011;65021;53.174;18.160;2023-04-29T06:56:43;12.80;;;6.50;;
76228;SDS011;65021;53.174;18.160;2023-04-29T06:59:10;12.90;;;6.40;;
76228;SDS011;65021;53.174;18.160;2023-04-29T07:01:37;11.20;;;6.30;;
76228;SDS011;65021;53.174;18.160;2023-04-29T07:04:05;10.70;;;5.90;;
76228;SDS011;65021;53.174;18.160;2023-04-29T07:06:32;11.70;;;5.80;;
76228;SDS011;65021;53.174;18.160;2023-04-29T07:08:58;12.50;;;5.40;;
76228;SDS011;65021;53.174;18.160;2023-04-29T07:11:26;12.10;;;6.10;;
76228;SDS011;65021;53.174;18.160;2023-04-29T07:13:53;9.40;;;5.60;;
76228;SDS011;65021;53.174;18.160;2023-04-29T07:16:19;9.50;;;5.50;;
76228;SDS011;65021;53.174;18.160;2023-04-29T07:18:47;8.50;;;4.40;;
76228;SDS011;65021;53.174;18.160;2023-04-29T07:21:14;11.60;;;6.00;;
76228;SDS011;65021;53.174;18.160;2023-04-29T07:23:41;11.70;;;6.50;;
76228;SDS011;65021;53.174;18.160;2023-04-29T07:26:12;12.80;;;6.00;;
76228;SDS011;65021;53.174;18.160;2023-04-29T07:28:41;10.00;;;4.80;;
76228;SDS011;65021;53.174;18.160;2023-04-29T07:31:08;10.60;;;5.60;;
76228;SDS011;65021;53.174;18.160;2023-04-29T07:33:34;12.80;;;6.60;;
76228;SDS011;65021;53.174;18.160;2023-04-29T07:36:01;10.80;;;4.80;;
76228;SDS011;65021;53.174;18.160;2023-04-29T07:38:29;12.30;;;4.90;;
76228;SDS011;65021;53.174;18.160;2023-04-29T07:40:56;12.20;;;6.30;;
76228;SDS011;65021;53.174;18.160;2023-04-29T07:43:23;10.70;;;6.10;;
76228;SDS011;65021;53.174;18.160;2023-04-29T07:45:49;11.70;;;6.60;;
76228;SDS011;65021;53.174;18.160;2023-04-29T07:48:16;12.80;;;5.20;;
76228;SDS011;65021;53.174;18.160;2023-04-29T07:50:42;11.20;;;6.40;;
76228;SDS011;65021;53.174;18.160;2023-04-29T07:53:09;13.00;;;6.90;;
76228;SDS011;65021;53.174;18.160;2023-04-29T07:55:36;11.80;;;7.00;;
76228;SDS011;65021;53.174;18.160;2023-04-29T07:58:03;11.50;;;6.10;;
76228;SDS011;65021;53.174;18.160;2023-04-29T08:00:30;10.20;;;6.60;;
76228;SDS011;65021;53.174;18.160;2023-04-29T08:02:56;12.50;;;6.20;;
76228;SDS011;65021;53.174;18.160;2023-04-29T08:05:23;10.00;;;5.80;;
76228;SDS011;65021;53.174;18.160;2023-04-29T08:07:50;16.60;;;8.80;;
76228;SDS011;65021;53.174;18.160;2023-04-29T08:10:17;17.90;;;9.80;;
76228;SDS011;65021;53.174;18.160;2023-04-29T08:12:44;13.30;;;7.00;;
76228;SDS011;65021;53.174;18.160;2023-04-29T08:15:11;10.80;;;5.40;;
76228;SDS011;65021;53.174;18.160;2023-04-29T08:17:38;15.10;;;6.20;;
76228;SDS011;65021;53.174;18.160;2023-04-29T08:20:05;11.70;;;6.40;;
76228;SDS011;65021;53.174;18.160;2023-04-29T08:22:33;11.20;;;5.20;;
76228;SDS011;65021;53.174;18.160;2023-04-29T08:24:59;11.30;;;5.60;;
76228;SDS011;65021;53.174;18.160;2023-04-29T08:27:28;12.60;;;5.80;;
76228;SDS011;65021;53.174;18.160;2023-04-29T08:29:54;11.40;;;5.90;;
76228;SDS011;65021;53.174;18.160;2023-04-29T08:32:21;9.90;;;5.60;;
76228;SDS011;65021;53.174;18.160;2023-04-29T08:34:48;12.30;;;5.70;;
76228;SDS011;65021;53.174;18.160;2023-04-29T08:37:14;12.30;;;5.70;;
76228;SDS011;65021;53.174;18.160;2023-04-29T08:39:41;12.00;;;6.80;;
76228;SDS011;65021;53.174;18.160;2023-04-29T08:42:13;10.90;;;7.30;;
76228;SDS011;65021;53.174;18.160;2023-04-29T08:44:39;11.10;;;6.50;;
76228;SDS011;65021;53.174;18.160;2023-04-29T08:47:07;13.10;;;7.10;;
76228;SDS011;65021;53.174;18.160;2023-04-29T08:49:34;13.00;;;5.90;;
76228;SDS011;65021;53.174;18.160;2023-04-29T08:52:03;11.10;;;6.60;;
76228;SDS011;65021;53.174;18.160;2023-04-29T08:54:30;12.00;;;6.60;;
76228;SDS011;65021;53.174;18.160;2023-04-29T08:56:58;12.60;;;7.60;;
76228;SDS011;65021;53.174;18.160;2023-04-29T08:59:25;9.80;;;5.50;;
76228;SDS011;65021;53.174;18.160;2023-04-29T09:01:54;12.90;;;7.70;;
76228;SDS011;65021;53.174;18.160;2023-04-29T09:04:29;14.20;;;7.30;;
76228;SDS011;65021;53.174;18.160;2023-04-29T09:07:07;13.70;;;7.10;;
76228;SDS011;65021;53.174;18.160;2023-04-29T09:09:36;13.60;;;7.50;;
76228;SDS011;65021;53.174;18.160;2023-04-29T09:12:04;12.30;;;6.80;;
76228;SDS011;65021;53.174;18.160;2023-04-29T09:14:31;11.00;;;6.80;;
76228;SDS011;65021;53.174;18.160;2023-04-29T09:16:59;13.20;;;7.20;;
76228;SDS011;65021;53.174;18.160;2023-04-29T09:19:29;11.70;;;6.30;;
76228;SDS011;65021;53.174;18.160;2023-04-29T09:22:00;14.20;;;7.40;;
76228;SDS011;65021;53.174;18.160;2023-04-29T09:24:29;14.50;;;7.70;;
76228;SDS011;65021;53.174;18.160;2023-04-29T09:26:57;13.80;;;7.20;;
76228;SDS011;65021;53.174;18.160;2023-04-29T09:29:24;12.80;;;7.50;;
76228;SDS011;65021;53.174;18.160;2023-04-29T09:31:51;13.30;;;6.60;;
76228;SDS011;65021;53.174;18.160;2023-04-29T09:34:30;11.20;;;5.90;;
76228;SDS011;65021;53.174;18.160;2023-04-29T09:36:58;12.20;;;6.60;;
76228;SDS011;65021;53.174;18.160;2023-04-29T09:39:25;14.00;;;7.50;;
76228;SDS011;65021;53.174;18.160;2023-04-29T09:44:22;8.30;;;4.70;;
76228;SDS011;65021;53.174;18.160;2023-04-29T09:51:56;12.10;;;5.80;;
76228;SDS011;65021;53.174;18.160;2023-04-29T09:54:25;11.90;;;6.80;;
76228;SDS011;65021;53.174;18.160;2023-04-29T09:56:57;10.50;;;5.90;;
76228;SDS011;65021;53.174;18.160;2023-04-29T09:59:25;10.50;;;5.80;;
76228;SDS011;65021;53.174;18.160;2023-04-29T10:01:55;13.70;;;6.80;;
76228;SDS011;65021;53.174;18.160;2023-04-29T10:04:24;11.40;;;5.90;;
76228;SDS011;65021;53.174;18.160;2023-04-29T10:06:54;13.10;;;5.90;;
76228;SDS011;65021;53.174;18.160;2023-04-29T10:09:22;12.00;;;7.70;;
76228;SDS011;65021;53.174;18.160;2023-04-29T10:11:52;11.50;;;7.50;;
76228;SDS011;65021;53.174;18.160;2023-04-29T10:14:20;10.10;;;6.70;;
76228;SDS011;65021;53.174;18.160;2023-04-29T10:16:49;12.90;;;6.70;;
76228;SDS011;65021;53.174;18.160;2023-04-29T10:19:25;23.40;;;8.50;;
76228;SDS011;65021;53.174;18.160;2023-04-29T10:24:30;11.40;;;6.50;;
76228;SDS011;65021;53.174;18.160;2023-04-29T10:27:00;39.30;;;11.40;;
76228;SDS011;65021;53.174;18.160;2023-04-29T10:29:28;21.10;;;9.10;;
76228;SDS011;65021;53.174;18.160;2023-04-29T10:31:56;18.00;;;9.40;;
76228;SDS011;65021;53.174;18.160;2023-04-29T10:34:24;12.50;;;6.70;;
76228;SDS011;65021;53.174;18.160;2023-04-29T10:36:52;11.10;;;6.70;;
76228;SDS011;65021;53.174;18.160;2023-04-29T10:39:25;14.90;;;7.70;;
76228;SDS011;65021;53.174;18.160;2023-04-29T10:42:01;12.60;;;7.20;;
76228;SDS011;65021;53.174;18.160;2023-04-29T10:44:31;12.50;;;7.40;;
76228;SDS011;65021;53.174;18.160;2023-04-29T10:50:00;11.90;;;6.50;;
76228;SDS011;65021;53.174;18.160;2023-04-29T10:52:29;11.20;;;6.30;;
76228;SDS011;65021;53.174;18.160;2023-04-29T10:55:02;12.10;;;7.80;;
76228;SDS011;65021;53.174;18.160;2023-04-29T10:57:29;11.00;;;6.60;;
76228;SDS011;65021;53.174;18.160;2023-04-29T10:59:55;12.10;;;6.00;;
76228;SDS011;65021;53.174;18.160;2023-04-29T11:02:22;12.30;;;6.20;;
76228;SDS011;65021;53.174;18.160;2023-04-29T11:07:35;11.80;;;7.30;;
76228;SDS011;65021;53.174;18.160;2023-04-29T11:10:02;11.80;;;5.70;;
76228;SDS011;65021;53.174;18.160;2023-04-29T11:12:29;11.40;;;6.20;;
76228;SDS011;65021;53.174;18.160;2023-04-29T11:14:57;13.00;;;6.80;;
76228;SDS011;65021;53.174;18.160;2023-04-29T11:17:35;13.70;;;7.40;;
76228;SDS011;65021;53.174;18.160;2023-04-29T11:20:10;13.30;;;6.10;;
76228;SDS011;65021;53.174;18.160;2023-04-29T11:22:39;13.70;;;7.30;;
76228;SDS011;65021;53.174;18.160;2023-04-29T11:25:05;14.00;;;7.70;;
76228;SDS011;65021;53.174;18.160;2023-04-29T11:27:38;10.90;;;6.80;;
76228;SDS011;65021;53.174;18.160;2023-04-29T11:30:07;12.80;;;7.20;;
76228;SDS011;65021;53.174;18.160;2023-04-29T11:32:36;13.80;;;7.20;;
76228;SDS011;65021;53.174;18.160;2023-04-29T11:35:09;9.70;;;5.60;;
76228;SDS011;65021;53.174;18.160;2023-04-29T11:37:38;10.90;;;6.40;;
76228;SDS011;65021;53.174;18.160;2023-04-29T11:40:05;12.70;;;7.50;;
76228;SDS011;65021;53.174;18.160;2023-04-29T11:42:33;8.90;;;5.50;;
76228;SDS011;65021;53.174;18.160;2023-04-29T11:45:01;11.20;;;6.40;;
76228;SDS011;65021;53.174;18.160;2023-04-29T11:47:28;13.80;;;7.80;;
76228;SDS011;65021;53.174;18.160;2023-04-29T11:50:02;11.50;;;6.00;;
76228;SDS011;65021;53.174;18.160;2023-04-29T11:52:30;12.80;;;6.70;;
76228;SDS011;65021;53.174;18.160;2023-04-29T11:54:58;12.30;;;7.60;;
76228;SDS011;65021;53.174;18.160;2023-04-29T11:57:25;9.90;;;5.80;;
76228;SDS011;65021;53.174;18.160;2023-04-29T11:59:52;12.90;;;7.10;;
76228;SDS011;65021;53.174;18.160;2023-04-29T12:02:21;10.20;;;5.70;;
76228;SDS011;65021;53.174;18.160;2023-04-29T12:04:48;8.30;;;4.00;;
76228;SDS011;65021;53.174;18.160;2023-04-29T12:07:15;11.80;;;6.10;;
76228;SDS011;65021;53.174;18.160;2023-04-29T12:09:43;11.50;;;6.30;;
76228;SDS011;65021;53.174;18.160;2023-04-29T12:12:12;9.20;;;5.70;;
76228;SDS011;65021;53.174;18.160;2023-04-29T12:14:39;8.80;;;5.10;;
76228;SDS011;65021;53.174;18.160;2023-04-29T12:17:10;12.20;;;6.60;;
76228;SDS011;65021;53.174;18.160;2023-04-29T12:19:37;11.70;;;6.40;;
76228;SDS011;65021;53.174;18.160;2023-04-29T12:22:05;12.70;;;7.30;;
76228;SDS011;65021;53.174;18.160;2023-04-29T12:24:33;12.50;;;8.10;;
76228;SDS011;65021;53.174;18.160;2023-04-29T12:27:01;11.90;;;7.30;;
76228;SDS011;65021;53.174;18.160;2023-04-29T12:29:28;14.40;;;7.70;;
76228;SDS011;65021;53.174;18.160;2023-04-29T12:31:57;11.40;;;6.40;;
76228;SDS011;65021;53.174;18.160;2023-04-29T12:34:24;11.00;;;7.50;;
76228;SDS011;65021;53.174;18.160;2023-04-29T12:36:55;11.00;;;6.00;;
76228;SDS011;65021;53.174;18.160;2023-04-29T12:39:23;11.70;;;6.00;;
76228;SDS011;65021;53.174;18.160;2023-04-29T12:41:54;11.40;;;6.80;;
76228;SDS011;65021;53.174;18.160;2023-04-29T12:44:23;13.60;;;7.20;;
76228;SDS011;65021;53.174;18.160;2023-04-29T12:46:51;12.90;;;7.20;;
76228;SDS011;65021;53.174;18.160;2023-04-29T12:49:18;10.50;;;5.80;;
76228;SDS011;65021;53.174;18.160;2023-04-29T12:51:45;12.30;;;6.70;;
76228;SDS011;65021;53.174;18.160;2023-04-29T12:54:12;9.40;;;5.40;;
76228;SDS011;65021;53.174;18.160;2023-04-29T12:56:38;13.00;;;7.10;;
76228;SDS011;65021;53.174;18.160;2023-04-29T12:59:06;12.50;;;7.90;;
76228;SDS011;65021;53.174;18.160;2023-04-29T13:01:33;14.60;;;8.10;;
76228;SDS011;65021;53.174;18.160;2023-04-29T13:04:00;12.80;;;7.20;;
76228;SDS011;65021;53.174;18.160;2023-04-29T13:06:27;13.30;;;7.50;;
76228;SDS011;65021;53.174;18.160;2023-04-29T13:08:54;11.10;;;7.10;;
76228;SDS011;65021;53.174;18.160;2023-04-29T13:11:21;13.60;;;6.00;;
76228;SDS011;65021;53.174;18.160;2023-04-29T13:13:47;11.40;;;6.80;;
76228;SDS011;65021;53.174;18.160;2023-04-29T13:16:14;11.90;;;7.50;;
76228;SDS011;65021;53.174;18.160;2023-04-29T13:18:41;13.30;;;7.30;;
76228;SDS011;65021;53.174;18.160;2023-04-29T13:21:07;11.70;;;6.60;;
76228;SDS011;65021;53.174;18.160;2023-04-29T13:23:34;13.40;;;7.00;;
76228;SDS011;65021;53.174;18.160;2023-04-29T13:26:00;11.30;;;5.90;;
76228;SDS011;65021;53.174;18.160;2023-04-29T13:28:27;9.90;;;6.30;;
76228;SDS011;65021;53.174;18.160;2023-04-29T13:30:53;12.40;;;6.40;;
76228;SDS011;65021;53.174;18.160;2023-04-29T13:33:20;10.10;;;5.90;;
76228;SDS011;65021;53.174;18.160;2023-04-29T13:35:46;9.30;;;5.50;;
76228;SDS011;65021;53.174;18.160;2023-04-29T13:38:13;9.40;;;5.50;;
76228;SDS011;65021;53.174;18.160;2023-04-29T13:40:40;12.20;;;6.00;;
76228;SDS011;65021;53.174;18.160;2023-04-29T13:43:06;8.80;;;5.40;;
76228;SDS011;65021;53.174;18.160;2023-04-29T13:45:33;11.40;;;5.40;;
76228;SDS011;65021;53.174;18.160;2023-04-29T13:48:02;9.90;;;4.40;;
76228;SDS011;65021;53.174;18.160;2023-04-29T13:50:29;9.30;;;4.90;;
76228;SDS011;65021;53.174;18.160;2023-04-29T13:52:56;8.70;;;5.30;;
76228;SDS011;65021;53.174;18.160;2023-04-29T13:55:22;10.30;;;5.20;;
76228;SDS011;65021;53.174;18.160;2023-04-29T13:57:49;9.00;;;4.60;;
76228;SDS011;65021;53.174;18.160;2023-04-29T14:00:16;11.60;;;5.50;;
76228;SDS011;65021;53.174;18.160;2023-04-29T14:02:43;9.30;;;5.20;;
76228;SDS011;65021;53.174;18.160;2023-04-29T14:05:10;10.40;;;5.60;;
76228;SDS011;65021;53.174;18.160;2023-04-29T14:07:37;12.40;;;5.20;;
76228;SDS011;65021;53.174;18.160;2023-04-29T14:10:03;9.10;;;5.10;;
76228;SDS011;65021;53.174;18.160;2023-04-29T14:12:31;10.90;;;5.90;;
76228;SDS011;65021;53.174;18.160;2023-04-29T14:14:58;10.20;;;5.50;;
76228;SDS011;65021;53.174;18.160;2023-04-29T14:17:24;8.60;;;5.80;;
76228;SDS011;65021;53.174;18.160;2023-04-29T14:19:52;8.70;;;6.60;;
76228;SDS011;65021;53.174;18.160;2023-04-29T14:22:19;7.30;;;4.60;;
76228;SDS011;65021;53.174;18.160;2023-04-29T14:24:46;9.00;;;5.40;;
76228;SDS011;65021;53.174;18.160;2023-04-29T14:27:13;9.70;;;5.40;;
76228;SDS011;65021;53.174;18.160;2023-04-29T14:29:39;10.60;;;5.80;;
76228;SDS011;65021;53.174;18.160;2023-04-29T14:32:06;9.40;;;4.90;;
76228;SDS011;65021;53.174;18.160;2023-04-29T14:34:33;10.50;;;6.50;;
76228;SDS011;65021;53.174;18.160;2023-04-29T14:36:59;8.70;;;5.20;;
76228;SDS011;65021;53.174;18.160;2023-04-29T14:39:26;10.20;;;6.20;;
76228;SDS011;65021;53.174;18.160;2023-04-29T14:41:52;9.30;;;5.30;;
76228;SDS011;65021;53.174;18.160;2023-04-29T14:44:19;10.50;;;5.80;;
76228;SDS011;65021;53.174;18.160;2023-04-29T14:46:45;8.60;;;5.50;;
76228;SDS011;65021;53.174;18.160;2023-04-29T14:49:12;8.50;;;5.10;;
76228;SDS011;65021;53.174;18.160;2023-04-29T14:51:39;10.40;;;5.30;;